sensor_id;sensor_type;location;lat;lon;timestamp;P1;durP1;ratioP1;P2;durP2;ratioP2
33148;SDS011;19506;51.040;3.856;2023-05-27T00:02:06;8.23;;;2.50;;
33148;SDS011;19506;51.040;3.856;2023-05-27T00:04:31;3.30;;;2.25;;
33148;SDS011;19506;51.040;3.856;2023-05-27T00:06:57;3.95;;;2.42;;
33148;SDS011;19506;51.040;3.856;2023-05-27T00:09:23;7.10;;;2.47;;
33148;SDS011;19506;51.040;3.856;2023-05-27T00:11:48;7.88;;;2.38;;
33148;SDS011;19506;51.040;3.856;2023-05-27T00:14:14;5.30;;;2.38;;
33148;SDS011;19506;51.040;3.856;2023-05-27T00:16:42;4.78;;;2.58;;
33148;SDS011;19506;51.040;3.856;2023-05-27T00:19:08;6.10;;;2.22;;
33148;SDS011;19506;51.040;3.856;2023-05-27T00:21:33;6.07;;;2.30;;
33148;SDS011;19506;51.040;3.856;2023-05-27T00:23:59;7.13;;;2.05;;
33148;SDS011;19506;51.040;3.856;2023-05-27T00:26:25;4.90;;;2.28;;
33148;SDS011;19506;51.040;3.856;2023-05-27T00:28:51;5.68;;;2.25;;
33148;SDS011;19506;51.040;3.856;2023-05-27T00:31:17;5.47;;;2.40;;
33148;SDS011;19506;51.040;3.856;2023-05-27T00:33:43;3.03;;;1.80;;
33148;SDS011;19506;51.040;3.856;2023-05-27T00:36:09;4.95;;;2.35;;
33148;SDS011;19506;51.040;3.856;2023-05-27T00:38:35;4.45;;;2.35;;
33148;SDS011;19506;51.040;3.856;2023-05-27T00:41:01;4.20;;;2.53;;
33148;SDS011;19506;51.040;3.856;2023-05-27T00:43:28;3.20;;;1.83;;
33148;SDS011;19506;51.040;3.856;2023-05-27T00:45:55;7.07;;;2.13;;
33148;SDS011;19506;51.040;3.856;2023-05-27T00:48:21;5.30;;;2.30;;
33148;SDS011;19506;51.040;3.856;2023-05-27T00:50:47;4.35;;;2.17;;
33148;SDS011;19506;51.040;3.856;2023-05-27T00:53:13;5.03;;;2.20;;
33148;SDS011;19506;51.040;3.856;2023-05-27T00:55:39;5.50;;;2.33;;
33148;SDS011;19506;51.040;3.856;2023-05-27T00:58:05;3.13;;;1.88;;
33148;SDS011;19506;51.040;3.856;2023-05-27T01:00:34;4.55;;;2.33;;
33148;SDS011;19506;51.040;3.856;2023-05-27T01:03:02;5.07;;;2.33;;
33148;SDS011;19506;51.040;3.856;2023-05-27T01:05:28;3.35;;;2.20;;
33148;SDS011;19506;51.040;3.856;2023-05-27T01:08:00;4.60;;;2.30;;
33148;SDS011;19506;51.040;3.856;2023-05-27T01:16:09;7.53;;;2.13;;
33148;SDS011;19506;51.040;3.856;2023-05-27T01:18:37;5.22;;;2.33;;
33148;SDS011;19506;51.040;3.856;2023-05-27T01:21:06;4.03;;;2.17;;
33148;SDS011;19506;51.040;3.856;2023-05-27T01:23:35;4.25;;;2.38;;
33148;SDS011;19506;51.040;3.856;2023-05-27T01:26:03;4.50;;;2.63;;
33148;SDS011;19506;51.040;3.856;2023-05-27T01:28:32;3.90;;;2.03;;
33148;SDS011;19506;51.040;3.856;2023-05-27T01:31:34;2.60;;;1.60;;
33148;SDS011;19506;51.040;3.856;2023-05-27T01:34:00;5.28;;;2.88;;
33148;SDS011;19506;51.040;3.856;2023-05-27T01:36:33;3.83;;;2.20;;
33148;SDS011;19506;51.040;3.856;2023-05-27T01:39:15;4.25;;;2.08;;
33148;SDS011;19506;51.040;3.856;2023-05-27T01:41:41;4.05;;;2.40;;
33148;SDS011;19506;51.040;3.856;2023-05-27T01:44:07;3.97;;;2.10;;
33148;SDS011;19506;51.040;3.856;2023-05-27T01:46:35;3.47;;;1.95;;
33148;SDS011;19506;51.040;3.856;2023-05-27T01:49:01;4.95;;;1.67;;
33148;SDS011;19506;51.040;3.856;2023-05-27T01:51:27;3.97;;;2.00;;
33148;SDS011;19506;51.040;3.856;2023-05-27T01:53:53;2.95;;;1.90;;
33148;SDS011;19506;51.040;3.856;2023-05-27T01:56:18;4.50;;;1.90;;
33148;SDS011;19506;51.040;3.856;2023-05-27T01:58:44;6.00;;;2.38;;
33148;SDS011;19506;51.040;3.856;2023-05-27T02:01:10;4.15;;;2.10;;
33148;SDS011;19506;51.040;3.856;2023-05-27T02:03:37;4.15;;;2.08;;
33148;SDS011;19506;51.040;3.856;2023-05-27T02:06:02;4.78;;;2.20;;
33148;SDS011;19506;51.040;3.856;2023-05-27T02:08:28;2.17;;;1.70;;
33148;SDS011;19506;51.040;3.856;2023-05-27T02:10:54;3.22;;;2.00;;
33148;SDS011;19506;51.040;3.856;2023-05-27T02:13:19;2.70;;;1.75;;
33148;SDS011;19506;51.040;3.856;2023-05-27T02:15:45;5.38;;;1.83;;
33148;SDS011;19506;51.040;3.856;2023-05-27T02:18:11;4.18;;;2.00;;
33148;SDS011;19506;51.040;3.856;2023-05-27T02:20:38;3.08;;;1.73;;
33148;SDS011;19506;51.040;3.856;2023-05-27T02:23:05;3.28;;;1.75;;
33148;SDS011;19506;51.040;3.856;2023-05-27T02:25:32;3.85;;;2.13;;
33148;SDS011;19506;51.040;3.856;2023-05-27T02:27:57;3.08;;;1.95;;
33148;SDS011;19506;51.040;3.856;2023-05-27T02:30:27;4.10;;;2.08;;
33148;SDS011;19506;51.040;3.856;2023-05-27T02:32:56;4.15;;;2.03;;
33148;SDS011;19506;51.040;3.856;2023-05-27T02:35:22;2.95;;;1.58;;
33148;SDS011;19506;51.040;3.856;2023-05-27T02:37:48;1.90;;;1.52;;
33148;SDS011;19506;51.040;3.856;2023-05-27T02:40:24;1.80;;;1.48;;
33148;SDS011;19506;51.040;3.856;2023-05-27T02:42:51;3.22;;;1.85;;
33148;SDS011;19506;51.040;3.856;2023-05-27T02:45:16;2.85;;;1.67;;
33148;SDS011;19506;51.040;3.856;2023-05-27T02:47:42;3.42;;;2.10;;
33148;SDS011;19506;51.040;3.856;2023-05-27T02:50:08;2.45;;;1.95;;
33148;SDS011;19506;51.040;3.856;2023-05-27T02:52:34;3.08;;;1.75;;
33148;SDS011;19506;51.040;3.856;2023-05-27T02:54:59;4.60;;;1.65;;
33148;SDS011;19506;51.040;3.856;2023-05-27T02:57:25;2.45;;;1.95;;
33148;SDS011;19506;51.040;3.856;2023-05-27T02:59:51;3.55;;;1.85;;
33148;SDS011;19506;51.040;3.856;2023-05-27T03:02:16;2.00;;;1.50;;
33148;SDS011;19506;51.040;3.856;2023-05-27T03:04:42;1.85;;;1.45;;
33148;SDS011;19506;51.040;3.856;2023-05-27T03:07:08;2.95;;;1.85;;
33148;SDS011;19506;51.040;3.856;2023-05-27T03:09:34;1.83;;;1.58;;
33148;SDS011;19506;51.040;3.856;2023-05-27T03:11:59;4.13;;;2.08;;
33148;SDS011;19506;51.040;3.856;2023-05-27T03:14:25;2.22;;;1.60;;
33148;SDS011;19506;51.040;3.856;2023-05-27T03:16:51;4.45;;;2.00;;
33148;SDS011;19506;51.040;3.856;2023-05-27T03:19:16;3.30;;;1.70;;
33148;SDS011;19506;51.040;3.856;2023-05-27T03:21:42;4.43;;;1.75;;
33148;SDS011;19506;51.040;3.856;2023-05-27T03:24:07;3.90;;;1.80;;
33148;SDS011;19506;51.040;3.856;2023-05-27T03:26:33;2.38;;;1.70;;
33148;SDS011;19506;51.040;3.856;2023-05-27T03:28:59;2.67;;;1.50;;
33148;SDS011;19506;51.040;3.856;2023-05-27T03:31:24;1.48;;;1.38;;
33148;SDS011;19506;51.040;3.856;2023-05-27T03:33:50;2.22;;;1.55;;
33148;SDS011;19506;51.040;3.856;2023-05-27T03:36:16;3.45;;;1.80;;
33148;SDS011;19506;51.040;3.856;2023-05-27T03:38:41;1.88;;;1.70;;
33148;SDS011;19506;51.040;3.856;2023-05-27T03:41:07;4.20;;;1.83;;
33148;SDS011;19506;51.040;3.856;2023-05-27T03:43:33;2.33;;;1.48;;
33148;SDS011;19506;51.040;3.856;2023-05-27T03:45:58;1.60;;;1.50;;
33148;SDS011;19506;51.040;3.856;2023-05-27T03:48:24;2.83;;;1.67;;
33148;SDS011;19506;51.040;3.856;2023-05-27T03:50:50;2.72;;;1.70;;
33148;SDS011;19506;51.040;3.856;2023-05-27T03:53:15;1.90;;;1.30;;
33148;SDS011;19506;51.040;3.856;2023-05-27T03:55:41;2.08;;;1.40;;
33148;SDS011;19506;51.040;3.856;2023-05-27T03:58:07;1.63;;;1.40;;
33148;SDS011;19506;51.040;3.856;2023-05-27T04:00:32;3.10;;;1.75;;
33148;SDS011;19506;51.040;3.856;2023-05-27T04:03:00;2.97;;;2.00;;
33148;SDS011;19506;51.040;3.856;2023-05-27T04:05:26;4.03;;;1.45;;
33148;SDS011;19506;51.040;3.856;2023-05-27T04:07:51;4.50;;;1.75;;
33148;SDS011;19506;51.040;3.856;2023-05-27T04:10:17;1.92;;;1.25;;
33148;SDS011;19506;51.040;3.856;2023-05-27T04:12:43;2.92;;;1.77;;
33148;SDS011;19506;51.040;3.856;2023-05-27T04:15:08;3.00;;;1.35;;
33148;SDS011;19506;51.040;3.856;2023-05-27T04:17:34;1.98;;;1.65;;
33148;SDS011;19506;51.040;3.856;2023-05-27T04:20:01;2.35;;;1.58;;
33148;SDS011;19506;51.040;3.856;2023-05-27T04:22:36;2.25;;;1.63;;
33148;SDS011;19506;51.040;3.856;2023-05-27T04:25:01;2.72;;;1.63;;
33148;SDS011;19506;51.040;3.856;2023-05-27T04:27:27;2.92;;;1.20;;
33148;SDS011;19506;51.040;3.856;2023-05-27T04:29:53;2.20;;;1.50;;
33148;SDS011;19506;51.040;3.856;2023-05-27T04:32:18;1.85;;;1.65;;
33148;SDS011;19506;51.040;3.856;2023-05-27T04:34:45;2.63;;;1.58;;
33148;SDS011;19506;51.040;3.856;2023-05-27T04:37:12;2.33;;;1.60;;
33148;SDS011;19506;51.040;3.856;2023-05-27T04:39:37;2.13;;;1.70;;
33148;SDS011;19506;51.040;3.856;2023-05-27T04:42:10;1.75;;;1.60;;
33148;SDS011;19506;51.040;3.856;2023-05-27T04:44:37;2.15;;;1.50;;
33148;SDS011;19506;51.040;3.856;2023-05-27T04:47:04;2.55;;;1.48;;
33148;SDS011;19506;51.040;3.856;2023-05-27T04:49:30;2.03;;;1.40;;
33148;SDS011;19506;51.040;3.856;2023-05-27T04:51:56;1.20;;;1.10;;
33148;SDS011;19506;51.040;3.856;2023-05-27T04:54:23;2.35;;;1.38;;
33148;SDS011;19506;51.040;3.856;2023-05-27T04:56:49;2.03;;;1.52;;
33148;SDS011;19506;51.040;3.856;2023-05-27T04:59:18;3.33;;;1.45;;
33148;SDS011;19506;51.040;3.856;2023-05-27T05:01:46;2.25;;;1.60;;
33148;SDS011;19506;51.040;3.856;2023-05-27T05:04:35;1.75;;;1.33;;
33148;SDS011;19506;51.040;3.856;2023-05-27T05:07:02;2.95;;;1.70;;
33148;SDS011;19506;51.040;3.856;2023-05-27T05:09:28;2.28;;;1.48;;
33148;SDS011;19506;51.040;3.856;2023-05-27T05:11:54;2.13;;;1.55;;
33148;SDS011;19506;51.040;3.856;2023-05-27T05:14:20;1.42;;;1.33;;
33148;SDS011;19506;51.040;3.856;2023-05-27T05:16:46;2.33;;;1.55;;
33148;SDS011;19506;51.040;3.856;2023-05-27T05:19:12;1.98;;;1.30;;
33148;SDS011;19506;51.040;3.856;2023-05-27T05:21:38;1.55;;;1.20;;
33148;SDS011;19506;51.040;3.856;2023-05-27T05:24:04;2.60;;;1.80;;
33148;SDS011;19506;51.040;3.856;2023-05-27T05:26:30;2.22;;;1.42;;
33148;SDS011;19506;51.040;3.856;2023-05-27T05:28:55;1.75;;;1.35;;
33148;SDS011;19506;51.040;3.856;2023-05-27T05:31:21;2.67;;;1.48;;
33148;SDS011;19506;51.040;3.856;2023-05-27T05:33:46;1.70;;;1.35;;
33148;SDS011;19506;51.040;3.856;2023-05-27T05:36:12;1.38;;;1.27;;
33148;SDS011;19506;51.040;3.856;2023-05-27T05:38:38;1.83;;;1.50;;
33148;SDS011;19506;51.040;3.856;2023-05-27T05:41:04;1.70;;;1.20;;
33148;SDS011;19506;51.040;3.856;2023-05-27T05:43:30;1.55;;;1.38;;
33148;SDS011;19506;51.040;3.856;2023-05-27T05:45:55;1.60;;;1.33;;
33148;SDS011;19506;51.040;3.856;2023-05-27T05:48:21;1.95;;;1.48;;
33148;SDS011;19506;51.040;3.856;2023-05-27T05:50:47;3.80;;;1.40;;
33148;SDS011;19506;51.040;3.856;2023-05-27T05:53:13;1.25;;;1.15;;
33148;SDS011;19506;51.040;3.856;2023-05-27T05:55:38;2.40;;;1.48;;
33148;SDS011;19506;51.040;3.856;2023-05-27T05:58:04;1.83;;;1.33;;
33148;SDS011;19506;51.040;3.856;2023-05-27T06:00:30;3.10;;;1.80;;
33148;SDS011;19506;51.040;3.856;2023-05-27T06:02:55;19.13;;;5.80;;
33148;SDS011;19506;51.040;3.856;2023-05-27T06:05:21;29.08;;;6.90;;
33148;SDS011;19506;51.040;3.856;2023-05-27T06:07:47;33.65;;;9.63;;
33148;SDS011;19506;51.040;3.856;2023-05-27T06:10:13;35.00;;;10.10;;
33148;SDS011;19506;51.040;3.856;2023-05-27T06:12:39;33.05;;;10.65;;
33148;SDS011;19506;51.040;3.856;2023-05-27T06:15:05;39.95;;;11.75;;
33148;SDS011;19506;51.040;3.856;2023-05-27T06:17:31;63.33;;;13.35;;
33148;SDS011;19506;51.040;3.856;2023-05-27T06:19:57;57.05;;;18.40;;
33148;SDS011;19506;51.040;3.856;2023-05-27T06:22:23;48.38;;;16.25;;
33148;SDS011;19506;51.040;3.856;2023-05-27T06:24:48;43.15;;;11.75;;
33148;SDS011;19506;51.040;3.856;2023-05-27T06:27:14;39.55;;;13.55;;
33148;SDS011;19506;51.040;3.856;2023-05-27T06:29:40;51.45;;;15.10;;
33148;SDS011;19506;51.040;3.856;2023-05-27T06:32:05;41.22;;;13.57;;
33148;SDS011;19506;51.040;3.856;2023-05-27T06:34:31;47.67;;;12.45;;
33148;SDS011;19506;51.040;3.856;2023-05-27T06:36:57;40.33;;;12.50;;
33148;SDS011;19506;51.040;3.856;2023-05-27T06:39:22;45.53;;;12.35;;
33148;SDS011;19506;51.040;3.856;2023-05-27T06:41:49;47.03;;;13.45;;
33148;SDS011;19506;51.040;3.856;2023-05-27T06:44:15;37.63;;;11.65;;
33148;SDS011;19506;51.040;3.856;2023-05-27T06:46:40;35.78;;;9.43;;
33148;SDS011;19506;51.040;3.856;2023-05-27T06:49:06;42.38;;;11.90;;
33148;SDS011;19506;51.040;3.856;2023-05-27T06:51:32;46.50;;;9.70;;
33148;SDS011;19506;51.040;3.856;2023-05-27T06:53:58;34.20;;;11.20;;
33148;SDS011;19506;51.040;3.856;2023-05-27T06:56:23;34.22;;;8.63;;
33148;SDS011;19506;51.040;3.856;2023-05-27T06:58:49;30.42;;;9.07;;
33148;SDS011;19506;51.040;3.856;2023-05-27T07:01:15;24.65;;;7.97;;
33148;SDS011;19506;51.040;3.856;2023-05-27T07:03:41;34.75;;;9.00;;
33148;SDS011;19506;51.040;3.856;2023-05-27T07:06:07;25.42;;;7.30;;
33148;SDS011;19506;51.040;3.856;2023-05-27T07:08:33;28.67;;;7.38;;
33148;SDS011;19506;51.040;3.856;2023-05-27T07:10:58;34.08;;;9.02;;
33148;SDS011;19506;51.040;3.856;2023-05-27T07:13:24;30.38;;;8.38;;
33148;SDS011;19506;51.040;3.856;2023-05-27T07:15:49;28.95;;;7.65;;
33148;SDS011;19506;51.040;3.856;2023-05-27T07:18:16;22.10;;;7.13;;
33148;SDS011;19506;51.040;3.856;2023-05-27T07:20:41;30.27;;;6.90;;
33148;SDS011;19506;51.040;3.856;2023-05-27T07:23:07;24.42;;;7.00;;
33148;SDS011;19506;51.040;3.856;2023-05-27T07:25:33;31.17;;;6.50;;
33148;SDS011;19506;51.040;3.856;2023-05-27T07:27:59;20.75;;;5.80;;
33148;SDS011;19506;51.040;3.856;2023-05-27T07:30:25;23.00;;;6.28;;
33148;SDS011;19506;51.040;3.856;2023-05-27T07:32:53;35.75;;;8.90;;
33148;SDS011;19506;51.040;3.856;2023-05-27T07:35:19;26.88;;;6.03;;
33148;SDS011;19506;51.040;3.856;2023-05-27T07:37:44;13.68;;;5.20;;
33148;SDS011;19506;51.040;3.856;2023-05-27T07:40:10;21.45;;;5.72;;
33148;SDS011;19506;51.040;3.856;2023-05-27T07:42:36;23.70;;;6.80;;
33148;SDS011;19506;51.040;3.856;2023-05-27T07:45:02;16.67;;;5.03;;
33148;SDS011;19506;51.040;3.856;2023-05-27T07:47:28;19.80;;;6.93;;
33148;SDS011;19506;51.040;3.856;2023-05-27T07:49:54;21.98;;;6.05;;
33148;SDS011;19506;51.040;3.856;2023-05-27T07:52:20;17.20;;;6.28;;
33148;SDS011;19506;51.040;3.856;2023-05-27T07:54:46;25.67;;;6.78;;
33148;SDS011;19506;51.040;3.856;2023-05-27T07:57:12;27.40;;;6.05;;
33148;SDS011;19506;51.040;3.856;2023-05-27T07:59:41;27.73;;;6.10;;
33148;SDS011;19506;51.040;3.856;2023-05-27T08:02:07;22.70;;;6.20;;
33148;SDS011;19506;51.040;3.856;2023-05-27T08:04:33;22.02;;;5.93;;
33148;SDS011;19506;51.040;3.856;2023-05-27T08:06:59;27.40;;;6.40;;
33148;SDS011;19506;51.040;3.856;2023-05-27T08:09:25;18.20;;;6.03;;
33148;SDS011;19506;51.040;3.856;2023-05-27T08:11:50;12.25;;;4.88;;
33148;SDS011;19506;51.040;3.856;2023-05-27T08:14:16;22.73;;;6.45;;
33148;SDS011;19506;51.040;3.856;2023-05-27T08:16:42;27.05;;;6.43;;
33148;SDS011;19506;51.040;3.856;2023-05-27T08:19:08;18.58;;;5.45;;
33148;SDS011;19506;51.040;3.856;2023-05-27T08:21:33;21.55;;;6.40;;
33148;SDS011;19506;51.040;3.856;2023-05-27T08:24:00;24.05;;;6.30;;
33148;SDS011;19506;51.040;3.856;2023-05-27T08:26:25;29.60;;;6.40;;
33148;SDS011;19506;51.040;3.856;2023-05-27T08:28:51;23.77;;;5.38;;
33148;SDS011;19506;51.040;3.856;2023-05-27T08:31:17;24.38;;;6.43;;
33148;SDS011;19506;51.040;3.856;2023-05-27T08:33:42;24.13;;;4.95;;
33148;SDS011;19506;51.040;3.856;2023-05-27T08:36:08;19.83;;;5.80;;
33148;SDS011;19506;51.040;3.856;2023-05-27T08:38:34;30.25;;;7.15;;
33148;SDS011;19506;51.040;3.856;2023-05-27T08:40:59;21.38;;;6.85;;
33148;SDS011;19506;51.040;3.856;2023-05-27T08:43:25;24.67;;;6.15;;
33148;SDS011;19506;51.040;3.856;2023-05-27T08:45:51;25.83;;;5.70;;
33148;SDS011;19506;51.040;3.856;2023-05-27T08:48:16;23.88;;;6.72;;
33148;SDS011;19506;51.040;3.856;2023-05-27T08:50:42;19.40;;;5.55;;
33148;SDS011;19506;51.040;3.856;2023-05-27T08:53:09;22.30;;;6.28;;
33148;SDS011;19506;51.040;3.856;2023-05-27T08:55:35;30.77;;;6.82;;
33148;SDS011;19506;51.040;3.856;2023-05-27T08:58:04;23.33;;;6.13;;
33148;SDS011;19506;51.040;3.856;2023-05-27T09:00:31;24.95;;;5.70;;
33148;SDS011;19506;51.040;3.856;2023-05-27T09:02:57;17.05;;;5.93;;
33148;SDS011;19506;51.040;3.856;2023-05-27T09:05:25;19.90;;;5.70;;
33148;SDS011;19506;51.040;3.856;2023-05-27T09:07:51;22.05;;;6.43;;
33148;SDS011;19506;51.040;3.856;2023-05-27T09:10:16;20.90;;;6.30;;
33148;SDS011;19506;51.040;3.856;2023-05-27T09:12:43;20.13;;;5.45;;
33148;SDS011;19506;51.040;3.856;2023-05-27T09:15:10;21.58;;;5.40;;
33148;SDS011;19506;51.040;3.856;2023-05-27T09:17:40;20.85;;;5.28;;
33148;SDS011;19506;51.040;3.856;2023-05-27T09:20:10;20.23;;;5.85;;
33148;SDS011;19506;51.040;3.856;2023-05-27T09:22:37;14.75;;;4.88;;
33148;SDS011;19506;51.040;3.856;2023-05-27T09:25:04;19.70;;;4.95;;
33148;SDS011;19506;51.040;3.856;2023-05-27T09:27:31;17.80;;;4.85;;
33148;SDS011;19506;51.040;3.856;2023-05-27T09:29:57;22.65;;;5.45;;
33148;SDS011;19506;51.040;3.856;2023-05-27T09:32:32;16.58;;;4.63;;
33148;SDS011;19506;51.040;3.856;2023-05-27T09:34:58;14.45;;;4.78;;
33148;SDS011;19506;51.040;3.856;2023-05-27T09:37:31;20.63;;;5.68;;
33148;SDS011;19506;51.040;3.856;2023-05-27T09:40:00;17.77;;;5.75;;
33148;SDS011;19506;51.040;3.856;2023-05-27T09:42:43;15.15;;;5.05;;
33148;SDS011;19506;51.040;3.856;2023-05-27T09:45:11;15.73;;;5.30;;
33148;SDS011;19506;51.040;3.856;2023-05-27T09:47:47;19.40;;;5.13;;
33148;SDS011;19506;51.040;3.856;2023-05-27T09:50:16;20.40;;;7.00;;
33148;SDS011;19506;51.040;3.856;2023-05-27T09:52:44;21.00;;;5.40;;
33148;SDS011;19506;51.040;3.856;2023-05-27T09:55:11;12.18;;;5.05;;
33148;SDS011;19506;51.040;3.856;2023-05-27T09:57:38;26.23;;;6.22;;
33148;SDS011;19506;51.040;3.856;2023-05-27T10:00:05;18.70;;;4.63;;
33148;SDS011;19506;51.040;3.856;2023-05-27T10:02:41;14.68;;;4.70;;
33148;SDS011;19506;51.040;3.856;2023-05-27T10:05:08;16.42;;;5.07;;
33148;SDS011;19506;51.040;3.856;2023-05-27T10:07:38;18.00;;;4.80;;
33148;SDS011;19506;51.040;3.856;2023-05-27T10:10:09;15.10;;;4.93;;
33148;SDS011;19506;51.040;3.856;2023-05-27T10:12:37;14.63;;;4.13;;
33148;SDS011;19506;51.040;3.856;2023-05-27T10:15:07;15.88;;;4.13;;
33148;SDS011;19506;51.040;3.856;2023-05-27T10:17:41;13.73;;;4.35;;
33148;SDS011;19506;51.040;3.856;2023-05-27T10:23:08;14.60;;;4.50;;
33148;SDS011;19506;51.040;3.856;2023-05-27T10:25:36;22.63;;;6.85;;
33148;SDS011;19506;51.040;3.856;2023-05-27T10:28:03;13.98;;;5.30;;
33148;SDS011;19506;51.040;3.856;2023-05-27T10:30:28;16.52;;;4.78;;
33148;SDS011;19506;51.040;3.856;2023-05-27T10:32:54;22.92;;;4.55;;
33148;SDS011;19506;51.040;3.856;2023-05-27T10:35:20;18.23;;;4.82;;
33148;SDS011;19506;51.040;3.856;2023-05-27T10:37:50;23.67;;;5.03;;
33148;SDS011;19506;51.040;3.856;2023-05-27T10:40:25;17.52;;;4.43;;
33148;SDS011;19506;51.040;3.856;2023-05-27T10:42:59;18.45;;;4.63;;
33148;SDS011;19506;51.040;3.856;2023-05-27T10:45:33;14.15;;;4.03;;
33148;SDS011;19506;51.040;3.856;2023-05-27T10:47:59;13.00;;;4.13;;
33148;SDS011;19506;51.040;3.856;2023-05-27T10:50:32;12.35;;;3.90;;
33148;SDS011;19506;51.040;3.856;2023-05-27T10:53:00;14.45;;;4.45;;
33148;SDS011;19506;51.040;3.856;2023-05-27T10:55:28;12.63;;;4.40;;
33148;SDS011;19506;51.040;3.856;2023-05-27T10:57:56;14.50;;;4.45;;
33148;SDS011;19506;51.040;3.856;2023-05-27T11:00:23;12.90;;;5.05;;
33148;SDS011;19506;51.040;3.856;2023-05-27T11:02:52;10.85;;;4.35;;
33148;SDS011;19506;51.040;3.856;2023-05-27T11:05:19;11.45;;;4.20;;
33148;SDS011;19506;51.040;3.856;2023-05-27T11:07:45;12.98;;;4.55;;
33148;SDS011;19506;51.040;3.856;2023-05-27T11:10:11;14.65;;;3.95;;
33148;SDS011;19506;51.040;3.856;2023-05-27T11:12:42;18.88;;;4.82;;
33148;SDS011;19506;51.040;3.856;2023-05-27T11:15:10;17.20;;;3.92;;
33148;SDS011;19506;51.040;3.856;2023-05-27T11:17:36;14.20;;;4.40;;
33148;SDS011;19506;51.040;3.856;2023-05-27T11:20:02;16.35;;;4.45;;
33148;SDS011;19506;51.040;3.856;2023-05-27T11:22:30;15.27;;;4.75;;
33148;SDS011;19506;51.040;3.856;2023-05-27T11:24:59;12.32;;;4.38;;
33148;SDS011;19506;51.040;3.856;2023-05-27T11:27:36;15.60;;;3.97;;
33148;SDS011;19506;51.040;3.856;2023-05-27T11:30:07;12.50;;;4.53;;
33148;SDS011;19506;51.040;3.856;2023-05-27T11:32:36;14.55;;;4.05;;
33148;SDS011;19506;51.040;3.856;2023-05-27T11:35:01;16.15;;;4.03;;
33148;SDS011;19506;51.040;3.856;2023-05-27T11:37:31;13.23;;;4.18;;
33148;SDS011;19506;51.040;3.856;2023-05-27T11:39:57;11.60;;;4.30;;
33148;SDS011;19506;51.040;3.856;2023-05-27T11:42:23;18.80;;;4.45;;
33148;SDS011;19506;51.040;3.856;2023-05-27T11:44:50;16.33;;;4.18;;
33148;SDS011;19506;51.040;3.856;2023-05-27T11:47:16;13.25;;;4.80;;
33148;SDS011;19506;51.040;3.856;2023-05-27T11:49:42;20.30;;;4.68;;
33148;SDS011;19506;51.040;3.856;2023-05-27T11:52:08;11.70;;;4.28;;
33148;SDS011;19506;51.040;3.856;2023-05-27T11:54:37;13.00;;;4.38;;
33148;SDS011;19506;51.040;3.856;2023-05-27T11:57:03;15.18;;;4.57;;
33148;SDS011;19506;51.040;3.856;2023-05-27T11:59:33;10.75;;;4.03;;
33148;SDS011;19506;51.040;3.856;2023-05-27T12:01:59;17.52;;;5.18;;
33148;SDS011;19506;51.040;3.856;2023-05-27T12:04:25;15.50;;;4.63;;
33148;SDS011;19506;51.040;3.856;2023-05-27T12:06:51;11.95;;;4.80;;
33148;SDS011;19506;51.040;3.856;2023-05-27T12:09:16;11.82;;;3.70;;
33148;SDS011;19506;51.040;3.856;2023-05-27T12:11:42;9.00;;;3.78;;
33148;SDS011;19506;51.040;3.856;2023-05-27T12:14:08;15.77;;;3.83;;
33148;SDS011;19506;51.040;3.856;2023-05-27T12:16:33;12.40;;;4.35;;
33148;SDS011;19506;51.040;3.856;2023-05-27T12:19:00;16.45;;;4.00;;
33148;SDS011;19506;51.040;3.856;2023-05-27T12:21:26;15.13;;;4.45;;
33148;SDS011;19506;51.040;3.856;2023-05-27T12:23:52;12.95;;;4.50;;
33148;SDS011;19506;51.040;3.856;2023-05-27T12:26:18;17.23;;;5.15;;
33148;SDS011;19506;51.040;3.856;2023-05-27T12:28:43;19.35;;;4.70;;
33148;SDS011;19506;51.040;3.856;2023-05-27T12:31:10;17.77;;;4.68;;
33148;SDS011;19506;51.040;3.856;2023-05-27T12:33:36;24.20;;;5.38;;
33148;SDS011;19506;51.040;3.856;2023-05-27T12:36:02;13.73;;;4.28;;
33148;SDS011;19506;51.040;3.856;2023-05-27T12:38:30;14.48;;;4.93;;
33148;SDS011;19506;51.040;3.856;2023-05-27T12:40:56;20.25;;;4.88;;
33148;SDS011;19506;51.040;3.856;2023-05-27T12:43:23;20.70;;;4.70;;
33148;SDS011;19506;51.040;3.856;2023-05-27T12:45:49;15.88;;;4.20;;
33148;SDS011;19506;51.040;3.856;2023-05-27T12:48:15;23.63;;;5.43;;
33148;SDS011;19506;51.040;3.856;2023-05-27T12:50:42;18.35;;;4.63;;
33148;SDS011;19506;51.040;3.856;2023-05-27T12:53:08;14.48;;;4.38;;
33148;SDS011;19506;51.040;3.856;2023-05-27T12:55:35;18.05;;;5.32;;
33148;SDS011;19506;51.040;3.856;2023-05-27T12:58:01;15.77;;;4.18;;
33148;SDS011;19506;51.040;3.856;2023-05-27T13:00:27;24.85;;;5.63;;
33148;SDS011;19506;51.040;3.856;2023-05-27T13:02:54;19.70;;;5.35;;
33148;SDS011;19506;51.040;3.856;2023-05-27T13:05:19;16.05;;;5.38;;
33148;SDS011;19506;51.040;3.856;2023-05-27T13:08:18;15.05;;;3.85;;
33148;SDS011;19506;51.040;3.856;2023-05-27T13:10:37;19.60;;;4.13;;
33148;SDS011;19506;51.040;3.856;2023-05-27T13:13:03;16.52;;;4.45;;
33148;SDS011;19506;51.040;3.856;2023-05-27T13:15:29;16.15;;;4.25;;
33148;SDS011;19506;51.040;3.856;2023-05-27T13:17:56;19.92;;;5.53;;
33148;SDS011;19506;51.040;3.856;2023-05-27T13:20:23;19.42;;;4.28;;
33148;SDS011;19506;51.040;3.856;2023-05-27T13:22:49;17.63;;;4.50;;
33148;SDS011;19506;51.040;3.856;2023-05-27T13:25:16;10.60;;;3.83;;
33148;SDS011;19506;51.040;3.856;2023-05-27T13:27:42;16.10;;;4.10;;
33148;SDS011;19506;51.040;3.856;2023-05-27T13:30:09;16.27;;;4.15;;
33148;SDS011;19506;51.040;3.856;2023-05-27T13:32:39;19.27;;;4.40;;
33148;SDS011;19506;51.040;3.856;2023-05-27T13:35:06;10.18;;;3.28;;
33148;SDS011;19506;51.040;3.856;2023-05-27T13:37:31;18.52;;;3.67;;
33148;SDS011;19506;51.040;3.856;2023-05-27T13:39:57;15.07;;;3.90;;
33148;SDS011;19506;51.040;3.856;2023-05-27T13:42:23;15.18;;;4.63;;
33148;SDS011;19506;51.040;3.856;2023-05-27T13:44:49;15.95;;;4.60;;
33148;SDS011;19506;51.040;3.856;2023-05-27T13:47:14;14.43;;;3.90;;
33148;SDS011;19506;51.040;3.856;2023-05-27T13:49:40;15.52;;;4.53;;
33148;SDS011;19506;51.040;3.856;2023-05-27T13:52:06;15.18;;;3.80;;
33148;SDS011;19506;51.040;3.856;2023-05-27T13:54:31;18.70;;;4.60;;
33148;SDS011;19506;51.040;3.856;2023-05-27T13:56:57;14.75;;;3.97;;
33148;SDS011;19506;51.040;3.856;2023-05-27T13:59:23;6.80;;;2.70;;
33148;SDS011;19506;51.040;3.856;2023-05-27T14:01:48;13.00;;;3.58;;
33148;SDS011;19506;51.040;3.856;2023-05-27T14:04:15;10.38;;;3.40;;
33148;SDS011;19506;51.040;3.856;2023-05-27T14:06:41;10.60;;;3.47;;
33148;SDS011;19506;51.040;3.856;2023-05-27T14:09:07;14.70;;;4.15;;
33148;SDS011;19506;51.040;3.856;2023-05-27T14:11:33;15.45;;;3.70;;
33148;SDS011;19506;51.040;3.856;2023-05-27T14:13:58;13.85;;;4.03;;
33148;SDS011;19506;51.040;3.856;2023-05-27T14:16:24;12.93;;;4.25;;
33148;SDS011;19506;51.040;3.856;2023-05-27T14:18:50;12.73;;;4.53;;
33148;SDS011;19506;51.040;3.856;2023-05-27T14:21:16;22.52;;;5.65;;
33148;SDS011;19506;51.040;3.856;2023-05-27T14:23:42;21.30;;;4.30;;
33148;SDS011;19506;51.040;3.856;2023-05-27T14:26:08;27.77;;;4.20;;
33148;SDS011;19506;51.040;3.856;2023-05-27T14:28:34;22.60;;;4.18;;
33148;SDS011;19506;51.040;3.856;2023-05-27T14:31:00;13.38;;;4.32;;
33148;SDS011;19506;51.040;3.856;2023-05-27T14:33:26;18.52;;;4.47;;
33148;SDS011;19506;51.040;3.856;2023-05-27T14:35:51;14.48;;;4.65;;
33148;SDS011;19506;51.040;3.856;2023-05-27T14:38:17;10.82;;;3.65;;
33148;SDS011;19506;51.040;3.856;2023-05-27T14:40:43;19.95;;;4.05;;
33148;SDS011;19506;51.040;3.856;2023-05-27T14:43:09;12.98;;;4.03;;
33148;SDS011;19506;51.040;3.856;2023-05-27T14:45:35;13.10;;;4.35;;